createdAt,value
2018-05-10T00:00:19.187Z,19.70
2018-05-10T00:02:22.371Z,19.70
2018-05-10T00:04:24.800Z,19.70
2018-05-10T00:06:27.324Z,19.70
2018-05-10T00:08:29.802Z,19.70
2018-05-10T00:10:32.228Z,19.70
2018-05-10T00:12:35.421Z,19.60
2018-05-10T00:14:38.644Z,19.60
2018-05-10T00:16:41.086Z,19.60
2018-05-10T00:18:44.301Z,19.60
2018-05-10T00:20:46.737Z,19.50
2018-05-10T00:22:49.927Z,19.50
2018-05-10T00:24:53.128Z,19.50
2018-05-10T00:26:55.621Z,19.40
2018-05-10T00:28:58.056Z,19.40
2018-05-10T00:31:01.272Z,19.40
2018-05-10T00:33:03.744Z,19.40
2018-05-10T00:35:06.212Z,19.30
2018-05-10T00:37:08.640Z,19.30
2018-05-10T00:39:11.843Z,19.30
2018-05-10T00:41:15.052Z,19.20
2018-05-10T00:43:17.480Z,19.20
2018-05-10T00:45:20.722Z,19.20
2018-05-10T00:47:23.151Z,19.20
2018-05-10T00:49:26.368Z,19.10
2018-05-10T00:51:28.852Z,19.10
2018-05-10T00:53:31.275Z,19.10
2018-05-10T00:55:34.472Z,19.10
2018-05-10T00:57:36.913Z,19.00
2018-05-10T00:59:39.450Z,19.00
2018-05-10T01:01:41.872Z,19.00
2018-05-10T01:03:45.093Z,18.90
2018-05-10T01:05:47.528Z,18.90
2018-05-10T01:07:50.753Z,18.90
2018-05-10T01:09:53.937Z,18.80
2018-05-10T01:11:56.364Z,18.80
2018-05-10T01:13:59.556Z,18.70
2018-05-10T01:16:02.767Z,18.70
2018-05-10T01:18:05.201Z,18.70
2018-05-10T01:20:07.641Z,18.70
2018-05-10T01:22:10.071Z,18.60
2018-05-10T01:24:12.516Z,18.60
2018-05-10T01:26:15.752Z,18.60
2018-05-10T01:28:18.188Z,18.50
2018-05-10T01:30:21.390Z,18.50
2018-05-10T01:32:23.837Z,18.50
2018-05-10T01:34:27.048Z,18.40
2018-05-10T01:36:29.860Z,18.40
2018-05-10T01:38:32.294Z,18.40
2018-05-10T01:40:34.732Z,18.40
2018-05-10T01:42:37.168Z,18.40
2018-05-10T01:44:39.620Z,18.40
2018-05-10T01:46:42.101Z,18.30
2018-05-10T01:48:44.561Z,18.30
2018-05-10T01:50:47.032Z,18.30
2018-05-10T01:52:49.469Z,18.30
2018-05-10T01:54:52.676Z,18.30
2018-05-10T01:56:55.104Z,18.30
2018-05-10T01:58:57.633Z,18.30
2018-05-10T02:01:00.073Z,18.30
2018-05-10T02:03:02.573Z,18.20
2018-05-10T02:05:05.601Z,18.20
2018-05-10T02:07:08.142Z,18.20
2018-05-10T02:09:10.613Z,18.20
2018-05-10T02:11:13.065Z,18.10
2018-05-10T02:13:15.537Z,18.10
2018-05-10T02:15:17.968Z,18.00
2018-05-10T02:17:21.169Z,17.90
2018-05-10T02:19:23.604Z,17.90
2018-05-10T02:21:26.064Z,17.90
2018-05-10T02:23:28.504Z,17.80
2018-05-10T02:25:30.947Z,17.80
2018-05-10T02:27:34.165Z,17.80
2018-05-10T02:29:36.611Z,17.70
2018-05-10T02:31:39.796Z,17.70
2018-05-10T02:33:42.232Z,17.70
2018-05-10T02:35:44.668Z,17.60
2018-05-10T02:37:47.130Z,17.60
2018-05-10T02:39:49.558Z,17.50
2018-05-10T02:41:52.765Z,17.50
2018-05-10T02:43:55.200Z,17.40
2018-05-10T02:45:57.724Z,17.40
2018-05-10T02:48:00.716Z,17.40
2018-05-10T02:50:03.194Z,17.40
2018-05-10T02:52:05.636Z,17.30
2018-05-10T02:54:08.074Z,17.40
2018-05-10T02:56:11.303Z,17.40
2018-05-10T02:58:13.775Z,17.40
2018-05-10T03:00:16.244Z,17.40
2018-05-10T03:02:18.718Z,17.40
2018-05-10T03:04:21.187Z,17.50
2018-05-10T03:06:23.654Z,17.50
2018-05-10T03:08:26.080Z,17.60
2018-05-10T03:10:29.314Z,17.60
2018-05-10T03:12:31.745Z,17.60
2018-05-10T03:14:34.956Z,17.60
2018-05-10T03:16:37.392Z,17.60
2018-05-10T03:18:39.908Z,17.50
2018-05-10T03:20:42.340Z,17.50
2018-05-10T03:22:45.561Z,17.60
2018-05-10T03:24:48.039Z,17.50
2018-05-10T03:26:50.472Z,17.50
2018-05-10T03:28:53.696Z,17.50
2018-05-10T03:30:56.160Z,17.40
2018-05-10T03:32:58.595Z,17.40
2018-05-10T03:35:01.788Z,17.40
2018-05-10T03:37:04.299Z,17.40
2018-05-10T03:39:06.757Z,17.40
2018-05-10T03:41:09.237Z,17.30
2018-05-10T03:43:11.680Z,17.30
2018-05-10T03:45:14.175Z,17.30
2018-05-10T03:47:16.608Z,17.20
2018-05-10T03:49:19.048Z,17.20
2018-05-10T03:51:21.497Z,17.20
2018-05-10T03:53:23.958Z,17.20
2018-05-10T03:55:26.447Z,17.10
2018-05-10T03:57:29.597Z,17.10
2018-05-10T03:59:32.088Z,17.10
2018-05-10T04:01:34.528Z,17.10
2018-05-10T04:03:48.997Z,17.10
2018-05-10T04:06:03.248Z,17.10
2018-05-10T04:08:17.503Z,17.10
2018-05-10T04:10:32.045Z,17.10
2018-05-10T04:12:34.485Z,17.20
2018-05-10T04:14:36.925Z,17.20
2018-05-10T04:16:39.383Z,17.30
2018-05-10T04:18:41.821Z,17.30
2018-05-10T04:20:44.301Z,17.40
2018-05-10T04:22:46.763Z,17.50
2018-05-10T04:24:49.201Z,17.60
2018-05-10T04:26:51.657Z,17.70
2018-05-10T04:28:54.892Z,17.70
2018-05-10T04:30:58.327Z,17.70
2018-05-10T04:33:00.852Z,17.70
2018-05-10T04:35:03.294Z,17.80
2018-05-10T04:37:06.612Z,17.90
2018-05-10T04:39:09.049Z,17.90
2018-05-10T04:41:12.253Z,18.10
2018-05-10T04:43:14.692Z,18.10
2018-05-10T04:45:17.905Z,18.40
2018-05-10T04:47:20.337Z,18.30
2018-05-10T04:49:22.865Z,18.60
2018-05-10T04:51:25.305Z,18.70
2018-05-10T04:53:28.516Z,18.80
2018-05-10T04:55:30.960Z,18.80
2018-05-10T04:57:34.180Z,18.90
2018-05-10T04:59:36.648Z,18.90
2018-05-10T05:01:39.089Z,18.90
2018-05-10T05:03:42.308Z,18.80
2018-05-10T05:05:44.749Z,18.80
2018-05-10T05:07:47.946Z,18.70
2018-05-10T05:09:50.432Z,18.70
2018-05-10T05:11:53.326Z,18.60
2018-05-10T05:13:56.484Z,18.80
2018-05-10T05:15:58.982Z,18.80
2018-05-10T05:18:01.427Z,18.80
2018-05-10T05:20:04.620Z,18.90
2018-05-10T05:22:07.069Z,18.90
2018-05-10T05:24:10.277Z,19.20
2018-05-10T05:26:12.712Z,19.10
2018-05-10T05:28:15.940Z,19.20
2018-05-10T05:30:19.328Z,19.20
2018-05-10T05:32:21.777Z,19.20
2018-05-10T05:34:25.010Z,19.10
2018-05-10T05:36:27.429Z,19.00
2018-05-10T05:38:30.622Z,18.90
2018-05-10T05:40:33.048Z,18.90
2018-05-10T05:42:35.592Z,18.90
2018-05-10T05:44:38.020Z,18.90
2018-05-10T05:46:41.216Z,18.80
2018-05-10T05:48:43.653Z,18.80
2018-05-10T05:50:46.086Z,18.80
2018-05-10T05:52:48.557Z,18.60
2018-05-10T05:54:51.005Z,18.60
2018-05-10T05:56:53.499Z,18.60
2018-05-10T05:58:55.934Z,18.50
2018-05-10T06:00:59.151Z,18.40
2018-05-10T06:03:01.589Z,18.40
2018-05-10T06:05:04.780Z,18.20
2018-05-10T06:07:07.216Z,18.20
2018-05-10T06:09:09.766Z,18.00
2018-05-10T06:11:12.202Z,17.90
2018-05-10T06:13:14.713Z,17.80
2018-05-10T06:15:17.165Z,17.70
2018-05-10T06:17:19.628Z,17.60
2018-05-10T06:19:22.064Z,17.60
2018-05-10T06:21:25.257Z,17.60
2018-05-10T06:23:27.709Z,17.60
2018-05-10T06:25:30.903Z,17.90
2018-05-10T06:27:34.141Z,18.00
2018-05-10T06:29:36.571Z,18.00
2018-05-10T06:31:39.068Z,18.20
2018-05-10T06:33:41.542Z,18.50
2018-05-10T06:35:44.014Z,18.80
2018-05-10T06:37:46.453Z,19.20
2018-05-10T06:39:49.672Z,19.90
2018-05-10T06:41:52.151Z,19.90
2018-05-10T06:43:54.576Z,20.30
2018-05-10T06:45:57.788Z,21.40
2018-05-10T06:48:00.224Z,21.40
2018-05-10T06:50:03.458Z,22.60
2018-05-10T06:52:05.889Z,22.50
2018-05-10T06:54:09.091Z,23.10
2018-05-10T06:56:11.580Z,23.10
2018-05-10T06:58:14.052Z,23.20
2018-05-10T07:00:16.485Z,23.30
2018-05-10T07:02:20.436Z,23.30
2018-05-10T07:04:22.896Z,23.30
2018-05-10T07:06:25.364Z,23.20
2018-05-10T07:08:27.791Z,23.00
2018-05-10T07:10:31.021Z,22.50
2018-05-10T07:12:33.496Z,22.50
2018-05-10T07:14:35.964Z,22.20
2018-05-10T07:16:38.436Z,22.00
2018-05-10T07:18:41.509Z,22.00
2018-05-10T07:20:44.944Z,21.80
2018-05-10T07:22:47.488Z,21.80
2018-05-10T07:24:49.912Z,21.70
2018-05-10T07:26:53.113Z,21.70
2018-05-10T07:28:56.324Z,21.70
2018-05-10T07:30:58.805Z,21.60
2018-05-10T07:33:01.281Z,21.60
2018-05-10T07:35:03.709Z,21.40
2018-05-10T07:37:06.930Z,21.50
2018-05-10T07:39:09.396Z,21.40
2018-05-10T07:41:11.869Z,21.50
2018-05-10T07:43:14.317Z,21.60
2018-05-10T07:45:16.804Z,21.80
2018-05-10T07:47:19.241Z,22.10
2018-05-10T07:49:22.432Z,22.60
2018-05-10T07:51:25.652Z,22.80
2018-05-10T07:53:28.117Z,22.80
2018-05-10T07:55:30.549Z,23.00
2018-05-10T07:57:33.758Z,23.10
2018-05-10T07:59:36.249Z,23.10
2018-05-10T08:01:38.677Z,23.20
2018-05-10T08:03:41.905Z,23.80
2018-05-10T08:05:44.336Z,23.70
2018-05-10T08:07:47.628Z,23.90
2018-05-10T08:09:50.809Z,23.90
2018-05-10T08:11:54.125Z,23.90
2018-05-10T08:13:57.313Z,23.80
2018-05-10T08:15:59.756Z,23.80
2018-05-10T08:18:02.951Z,23.70
2018-05-10T08:20:06.492Z,23.80
2018-05-10T08:22:08.933Z,23.80
2018-05-10T08:24:11.454Z,23.90
2018-05-10T08:26:13.788Z,23.80
2018-05-10T08:28:16.238Z,24.00
2018-05-10T08:30:18.768Z,24.00
2018-05-10T08:32:21.917Z,24.10
2018-05-10T08:34:24.357Z,24.10
2018-05-10T08:36:26.918Z,24.20
2018-05-10T08:38:29.306Z,24.20
2018-05-10T08:40:31.736Z,24.30
2018-05-10T08:42:34.978Z,24.30
2018-05-10T08:44:37.537Z,24.40
2018-05-10T08:46:41.512Z,24.10
2018-05-10T08:48:44.717Z,24.00
2018-05-10T08:50:47.217Z,24.00
2018-05-10T08:52:49.653Z,24.10
2018-05-10T08:54:52.877Z,24.40
2018-05-10T08:56:55.313Z,24.30
2018-05-10T08:58:58.513Z,24.20
2018-05-10T09:01:01.002Z,24.10
2018-05-10T09:03:03.472Z,24.10
2018-05-10T09:05:05.940Z,24.20
2018-05-10T09:07:08.410Z,24.30
2018-05-10T09:09:10.868Z,24.60
2018-05-10T09:11:13.449Z,24.60
2018-05-10T09:13:15.920Z,24.50
2018-05-10T09:15:18.352Z,24.50
2018-05-10T09:17:21.552Z,24.80
2018-05-10T09:19:24.048Z,24.80
2018-05-10T09:21:26.529Z,24.80
2018-05-10T09:23:28.956Z,24.80
2018-05-10T09:25:32.166Z,25.10
2018-05-10T09:27:34.595Z,25.10
2018-05-10T09:29:37.832Z,25.30
2018-05-10T09:31:40.304Z,25.30
2018-05-10T09:33:43.474Z,25.20
2018-05-10T09:35:45.964Z,25.10
2018-05-10T09:37:48.406Z,25.10
2018-05-10T09:39:51.606Z,25.20
2018-05-10T09:41:54.101Z,25.20
2018-05-10T09:43:56.536Z,25.20
2018-05-10T09:45:58.983Z,25.00
2018-05-10T09:48:02.220Z,24.30
2018-05-10T09:50:04.672Z,24.30
2018-05-10T09:52:07.182Z,23.80
2018-05-10T09:54:09.614Z,23.50
2018-05-10T09:56:12.057Z,23.50
2018-05-10T09:58:15.267Z,23.10
2018-05-10T10:00:23.462Z,23.10
2018-05-10T10:02:26.652Z,22.90
2018-05-10T10:04:29.144Z,22.90
2018-05-10T10:06:31.620Z,23.00
2018-05-10T10:08:34.089Z,23.00
2018-05-10T10:10:36.569Z,22.80
2018-05-10T10:12:39.027Z,22.80
2018-05-10T10:14:41.596Z,22.90
2018-05-10T10:16:44.130Z,22.90
2018-05-10T10:18:47.321Z,22.80
2018-05-10T10:20:50.660Z,22.60
2018-05-10T10:22:53.092Z,22.60
2018-05-10T10:24:56.296Z,22.30
2018-05-10T10:26:58.728Z,22.30
2018-05-10T10:29:01.152Z,22.30
2018-05-10T10:31:03.599Z,22.30
2018-05-10T10:33:06.061Z,22.40
2018-05-10T10:35:09.280Z,22.30
2018-05-10T10:37:11.746Z,22.30
2018-05-10T10:39:14.177Z,22.30
2018-05-10T10:41:17.403Z,22.50
2018-05-10T10:43:19.845Z,22.50
2018-05-10T10:45:23.104Z,22.90
2018-05-10T10:47:25.500Z,22.80
2018-05-10T10:49:28.129Z,22.80
2018-05-10T10:51:30.676Z,22.70
2018-05-10T10:53:33.149Z,22.40
2018-05-10T10:55:35.616Z,22.10
2018-05-10T10:57:38.084Z,21.90
2018-05-10T10:59:40.557Z,21.70
2018-05-10T11:01:43.063Z,21.50
2018-05-10T11:03:46.200Z,21.10
2018-05-10T11:05:48.688Z,21.10
2018-05-10T11:07:51.125Z,21.10
2018-05-10T11:09:53.627Z,21.00
2018-05-10T11:11:56.114Z,20.80
2018-05-10T11:13:58.545Z,20.70
2018-05-10T11:16:00.989Z,20.70
2018-05-10T11:18:04.180Z,20.60
2018-05-10T11:20:07.389Z,20.60
2018-05-10T11:22:09.824Z,20.50
2018-05-10T11:24:12.261Z,20.50
2018-05-10T11:26:14.709Z,20.40
2018-05-10T11:28:17.140Z,20.40
2018-05-10T11:30:20.345Z,20.30
2018-05-10T11:32:23.548Z,20.20
2018-05-10T11:34:25.989Z,20.10
2018-05-10T11:36:28.500Z,20.00
2018-05-10T11:38:30.972Z,19.90
2018-05-10T11:40:33.412Z,19.80
2018-05-10T11:42:36.612Z,19.80
2018-05-10T11:44:39.102Z,19.70
2018-05-10T11:46:41.537Z,19.80
2018-05-10T11:48:44.845Z,20.00
2018-05-10T11:50:47.217Z,19.90
2018-05-10T11:52:49.701Z,20.00
2018-05-10T11:54:52.169Z,20.10
2018-05-10T11:56:54.640Z,20.20
2018-05-10T11:58:57.080Z,20.20
2018-05-10T12:00:59.517Z,20.30
2018-05-10T12:03:02.034Z,20.40
2018-05-10T12:05:04.492Z,20.40
2018-05-10T12:07:06.924Z,20.40
2018-05-10T12:09:09.362Z,20.30
2018-05-10T12:11:11.800Z,20.30
2018-05-10T12:13:14.296Z,20.20
2018-05-10T12:15:16.731Z,20.20
2018-05-10T12:17:19.953Z,20.00
2018-05-10T12:19:22.429Z,20.00
2018-05-10T12:21:24.892Z,20.00
2018-05-10T12:23:27.365Z,20.00
2018-05-10T12:25:29.887Z,20.00
2018-05-10T12:27:32.316Z,20.00
2018-05-10T12:29:34.785Z,19.90
2018-05-10T12:31:37.217Z,19.90
2018-05-10T12:33:40.440Z,19.80
2018-05-10T12:35:42.866Z,19.80
2018-05-10T12:37:46.185Z,19.80
2018-05-10T12:39:48.529Z,19.80
2018-05-10T12:41:51.733Z,19.60
2018-05-10T12:43:54.161Z,19.60
2018-05-10T12:45:56.695Z,19.50
2018-05-10T12:47:59.121Z,19.30
2018-05-10T12:50:02.345Z,19.20
2018-05-10T12:52:04.816Z,19.10
2018-05-10T12:54:07.244Z,19.10
2018-05-10T12:56:10.500Z,18.90
2018-05-10T12:58:13.148Z,18.90
2018-05-10T13:00:15.620Z,18.90
2018-05-10T13:02:18.051Z,18.80
2018-05-10T13:04:21.281Z,18.60
2018-05-10T13:06:23.716Z,18.60
2018-05-10T13:08:26.305Z,18.60
2018-05-10T13:10:28.644Z,18.50
2018-05-10T13:12:31.875Z,18.40
2018-05-10T13:14:34.349Z,18.40
2018-05-10T13:16:36.786Z,18.30
2018-05-10T13:18:39.216Z,18.20
2018-05-10T13:20:41.757Z,18.10
2018-05-10T13:22:44.192Z,18.10
2018-05-10T13:24:47.401Z,18.10
2018-05-10T13:26:49.850Z,18.00
2018-05-10T13:28:53.112Z,18.00
2018-05-10T13:30:55.540Z,18.00
2018-05-10T13:32:57.980Z,18.00
2018-05-10T13:35:01.197Z,18.10
2018-05-10T13:37:03.638Z,18.10
2018-05-10T13:39:06.091Z,18.20
2018-05-10T13:41:08.604Z,18.20
2018-05-10T13:43:11.040Z,18.30
2018-05-10T13:45:14.372Z,18.40
2018-05-10T13:47:17.399Z,18.30
2018-05-10T13:49:20.509Z,18.40
2018-05-10T13:51:23.013Z,18.40
2018-05-10T13:53:25.477Z,18.50
2018-05-10T13:55:27.913Z,18.50
2018-05-10T13:57:31.141Z,18.50
2018-05-10T13:59:33.578Z,18.50
2018-05-10T14:01:36.771Z,18.50
2018-05-10T14:03:39.213Z,18.50
2018-05-10T14:05:41.644Z,18.50
2018-05-10T14:07:44.085Z,18.40
2018-05-10T14:09:47.358Z,18.50
2018-05-10T14:11:50.563Z,18.50
2018-05-10T14:13:53.134Z,18.50
2018-05-10T14:15:56.337Z,18.50
2018-05-10T14:17:58.846Z,18.50
2018-05-10T14:20:01.276Z,18.60
2018-05-10T14:22:03.796Z,18.60
2018-05-10T14:24:06.218Z,18.70
2018-05-10T14:26:08.693Z,18.80
2018-05-10T14:28:11.120Z,18.80
2018-05-10T14:30:14.360Z,18.90
2018-05-10T14:32:16.771Z,18.90
2018-05-10T14:34:20.824Z,19.00
2018-05-10T14:36:23.260Z,19.00
2018-05-10T14:38:26.480Z,19.10
2018-05-10T14:40:28.952Z,19.00
2018-05-10T14:42:31.416Z,19.10
2018-05-10T14:44:33.841Z,19.10
2018-05-10T14:46:36.414Z,19.10
2018-05-10T14:48:38.810Z,19.20
2018-05-10T14:50:41.301Z,19.20
2018-05-10T14:52:43.740Z,19.20
2018-05-10T14:54:46.241Z,19.20
2018-05-10T14:56:48.672Z,19.10
2018-05-10T14:58:51.903Z,19.10
2018-05-10T15:00:54.369Z,19.10
2018-05-10T15:02:56.812Z,19.10
2018-05-10T15:05:00.020Z,19.10
2018-05-10T15:07:02.464Z,19.10
2018-05-10T15:09:04.936Z,19.00
2018-05-10T15:11:08.176Z,19.00
2018-05-10T15:13:10.630Z,19.10
2018-05-10T15:15:13.052Z,19.10
2018-05-10T15:17:16.289Z,19.00
2018-05-10T15:19:18.747Z,19.00
2018-05-10T15:21:21.220Z,19.00
2018-05-10T15:23:23.657Z,19.00
2018-05-10T15:25:27.911Z,19.00
2018-05-10T15:27:30.337Z,19.00
2018-05-10T15:29:33.559Z,19.00
2018-05-10T15:31:36.041Z,19.00
2018-05-10T15:33:38.465Z,19.00
2018-05-10T15:35:41.667Z,19.00
2018-05-10T15:37:44.111Z,19.00
2018-05-10T15:39:47.336Z,19.00
2018-05-10T15:41:49.772Z,19.00
2018-05-10T15:43:52.973Z,19.20
2018-05-10T15:45:55.465Z,19.10
2018-05-10T15:47:57.937Z,19.20
2018-05-10T15:50:00.368Z,19.20
2018-05-10T15:52:03.673Z,19.40
2018-05-10T15:54:06.117Z,19.40
2018-05-10T15:56:08.644Z,19.40
2018-05-10T15:58:11.090Z,19.40
2018-05-10T16:00:13.577Z,19.50
2018-05-10T16:02:16.063Z,19.60
2018-05-10T16:04:18.522Z,19.60
2018-05-10T16:06:20.954Z,19.60
2018-05-10T16:08:24.191Z,19.60
2018-05-10T16:10:26.649Z,19.50
2018-05-10T16:12:29.065Z,19.50
2018-05-10T16:14:31.601Z,19.50
2018-05-10T16:16:34.056Z,19.60
2018-05-10T16:18:36.526Z,19.60
2018-05-10T16:20:38.957Z,19.50
2018-05-10T16:22:42.184Z,19.50
2018-05-10T16:24:44.625Z,19.40
2018-05-10T16:26:47.844Z,19.40
2018-05-10T16:28:50.325Z,19.40
2018-05-10T16:30:52.874Z,19.30
2018-05-10T16:32:56.084Z,19.30
2018-05-10T16:34:58.505Z,19.30
2018-05-10T16:37:01.700Z,19.40
2018-05-10T16:39:05.731Z,19.50
2018-05-10T16:41:08.165Z,19.50
2018-05-10T16:43:11.370Z,19.50
2018-05-10T16:45:13.800Z,19.50
2018-05-10T16:47:16.233Z,19.50
2018-05-10T16:49:18.709Z,19.50
2018-05-10T16:51:21.132Z,19.50
2018-05-10T16:53:24.420Z,19.60
2018-05-10T16:55:26.772Z,19.60
2018-05-10T16:57:29.206Z,19.60
2018-05-10T16:59:31.680Z,19.60
2018-05-10T17:01:34.107Z,19.60
2018-05-10T17:03:43.444Z,19.40
2018-05-10T17:05:45.955Z,19.40
2018-05-10T17:07:48.421Z,19.30
2018-05-10T17:09:50.877Z,19.20
2018-05-10T17:11:53.356Z,19.20
2018-05-10T17:13:55.805Z,19.10
2018-05-10T17:15:58.231Z,19.10
2018-05-10T17:18:00.764Z,19.10
2018-05-10T17:20:03.211Z,19.00
2018-05-10T17:22:05.640Z,18.70
2018-05-10T17:24:08.077Z,18.50
2018-05-10T17:26:10.513Z,18.40
2018-05-10T17:28:13.721Z,17.90
2018-05-10T17:30:16.191Z,17.90
2018-05-10T17:32:18.623Z,17.80
2018-05-10T17:34:21.063Z,17.60
2018-05-10T17:36:23.508Z,17.60
2018-05-10T17:38:25.936Z,17.40
2018-05-10T17:40:29.274Z,17.30
2018-05-10T17:42:31.702Z,17.30
2018-05-10T17:44:34.908Z,17.50
2018-05-10T17:46:37.402Z,17.50
2018-05-10T17:48:39.831Z,17.50
2018-05-10T17:50:43.056Z,17.20
2018-05-10T17:52:45.489Z,17.10
2018-05-10T17:54:49.535Z,16.80
2018-05-10T17:56:51.992Z,16.80
2018-05-10T18:01:27.438Z,16.60
2018-05-10T18:03:29.920Z,16.50
2018-05-10T18:05:32.396Z,16.40
2018-05-10T18:07:34.838Z,16.40
2018-05-10T18:09:38.044Z,16.30
2018-05-10T18:11:40.516Z,16.30
2018-05-10T18:13:43.018Z,16.30
2018-05-10T18:15:46.149Z,16.10
2018-05-10T18:17:49.341Z,16.00
2018-05-10T18:19:51.901Z,15.90
2018-05-10T18:21:55.108Z,15.80
2018-05-10T18:23:57.536Z,15.80
2018-05-10T18:25:59.968Z,15.70
2018-05-10T18:28:02.408Z,15.70
2018-05-10T18:30:05.604Z,15.70
2018-05-10T18:32:08.032Z,15.70
2018-05-10T18:34:10.467Z,15.80
2018-05-10T18:36:13.018Z,15.80
2018-05-10T18:38:15.442Z,15.70
2018-05-10T18:40:17.876Z,15.80
2018-05-10T18:42:20.301Z,15.70
2018-05-10T18:44:23.532Z,15.70
2018-05-10T18:46:26.083Z,15.70
2018-05-10T18:48:28.429Z,15.80
2018-05-10T18:50:31.638Z,15.70
2018-05-10T18:52:34.120Z,15.70
2018-05-10T18:54:36.620Z,15.70
2018-05-10T18:56:39.074Z,15.60
2018-05-10T18:58:41.551Z,15.60
2018-05-10T19:00:43.980Z,15.50
2018-05-10T19:02:46.408Z,15.50
2018-05-10T19:04:48.851Z,15.50
2018-05-10T19:06:51.367Z,15.50
2018-05-10T19:08:53.763Z,15.40
2018-05-10T19:10:56.192Z,15.40
2018-05-10T19:12:59.380Z,15.20
2018-05-10T19:15:02.585Z,15.20
2018-05-10T19:17:05.098Z,15.20
2018-05-10T19:19:07.538Z,15.20
2018-05-10T19:21:10.748Z,15.20
2018-05-10T19:23:13.224Z,15.20
2018-05-10T19:25:15.698Z,15.20
2018-05-10T19:27:18.168Z,15.20
2018-05-10T19:29:20.606Z,15.10
2018-05-10T19:31:23.845Z,15.10
2018-05-10T19:33:26.280Z,15.10
2018-05-10T19:35:28.716Z,15.10
2018-05-10T19:37:31.152Z,15.00
2018-05-10T19:39:33.588Z,15.00
2018-05-10T19:41:36.040Z,14.90
2018-05-10T19:43:39.240Z,15.00
2018-05-10T19:45:41.672Z,14.90
2018-05-10T19:47:44.104Z,14.90
2018-05-10T19:49:46.558Z,14.80
2018-05-10T19:51:49.043Z,14.80
2018-05-10T19:53:51.512Z,14.80
2018-05-10T19:55:53.936Z,14.70
2018-05-10T19:57:57.163Z,14.70
2018-05-10T19:59:59.633Z,14.70
2018-05-10T20:02:02.062Z,14.60
2018-05-10T20:04:05.252Z,14.50
2018-05-10T20:06:08.546Z,14.50
2018-05-10T20:08:10.957Z,14.40
2018-05-10T20:10:13.420Z,14.40
2018-05-10T20:12:15.955Z,14.40
2018-05-10T20:14:18.321Z,14.30
2018-05-10T20:16:21.517Z,14.20
2018-05-10T20:18:24.732Z,14.10
2018-05-10T20:20:27.204Z,14.10
2018-05-10T20:22:29.681Z,14.00
2018-05-10T20:24:32.533Z,14.00
2018-05-10T20:26:35.728Z,13.90
2018-05-10T20:28:38.173Z,13.80
2018-05-10T20:30:41.605Z,13.80
2018-05-10T20:32:44.044Z,13.80
2018-05-10T20:34:47.237Z,13.60
2018-05-10T20:36:50.488Z,13.60
2018-05-10T20:38:52.901Z,13.50
2018-05-10T20:40:55.328Z,13.50
2018-05-10T20:42:57.756Z,13.50
2018-05-10T20:45:00.184Z,13.50
2018-05-10T20:47:03.412Z,13.40
2018-05-10T20:49:05.889Z,13.40
2018-05-10T20:51:08.352Z,13.40
2018-05-10T20:53:10.771Z,13.30
2018-05-10T20:55:13.269Z,13.30
2018-05-10T20:57:15.660Z,13.20
2018-05-10T20:59:18.094Z,13.20
2018-05-10T21:01:21.296Z,13.10
2018-05-10T21:03:23.724Z,13.10
2018-05-10T21:05:26.266Z,13.00
2018-05-10T21:07:28.736Z,13.00
2018-05-10T21:09:31.165Z,13.00
2018-05-10T21:11:34.364Z,12.90
2018-05-10T21:13:36.856Z,12.90
2018-05-10T21:15:39.356Z,12.90
2018-05-10T21:17:41.780Z,12.90
2018-05-10T21:19:44.268Z,12.80
2018-05-10T21:21:46.700Z,12.80
2018-05-10T21:23:50.466Z,12.70
2018-05-10T21:25:52.905Z,12.70
2018-05-10T21:27:55.375Z,12.70
2018-05-10T21:29:57.809Z,12.70
2018-05-10T21:32:01.013Z,12.60
2018-05-10T21:34:03.474Z,12.60
2018-05-10T21:36:05.876Z,12.60
2018-05-10T21:38:08.308Z,12.50
2018-05-10T21:40:11.512Z,12.50
2018-05-10T21:42:13.954Z,12.50
2018-05-10T21:44:16.380Z,12.50
2018-05-10T21:46:18.820Z,12.40
2018-05-10T21:48:21.253Z,12.40
2018-05-10T21:50:27.538Z,12.30
2018-05-10T21:52:30.731Z,12.30
2018-05-10T21:54:33.152Z,12.20
2018-05-10T21:56:35.590Z,12.20
2018-05-10T21:58:38.022Z,12.20
2018-05-10T22:00:41.254Z,12.20
2018-05-10T22:02:43.684Z,12.10
2018-05-10T22:04:46.920Z,12.10
2018-05-10T22:06:49.376Z,12.10
2018-05-10T22:08:51.886Z,12.10
2018-05-10T22:10:55.033Z,12.00
2018-05-10T22:12:57.908Z,12.00
2018-05-10T22:15:00.345Z,12.00
2018-05-10T22:17:03.568Z,12.00
2018-05-10T22:19:05.994Z,11.90
2018-05-10T22:21:08.544Z,11.90
2018-05-10T22:23:11.092Z,11.90
2018-05-10T22:25:13.565Z,11.90
2018-05-10T22:27:16.028Z,11.90
2018-05-10T22:29:18.506Z,11.80
2018-05-10T22:31:20.953Z,11.80
2018-05-10T22:33:23.383Z,11.80
2018-05-10T22:35:26.028Z,11.80
2018-05-10T22:37:28.468Z,11.70
2018-05-10T22:39:30.903Z,11.70
2018-05-10T22:41:33.341Z,11.70
2018-05-10T22:43:35.809Z,11.60
2018-05-10T22:45:38.237Z,11.70
2018-05-10T22:47:40.668Z,11.60
2018-05-10T22:49:43.208Z,11.60
2018-05-10T22:51:45.676Z,11.50
2018-05-10T22:53:48.144Z,11.50
2018-05-10T22:55:50.711Z,11.50
2018-05-10T22:57:53.143Z,11.50
2018-05-10T22:59:56.277Z,11.40
2018-05-10T23:01:58.738Z,11.40
2018-05-10T23:04:01.216Z,11.40
2018-05-10T23:06:03.724Z,11.40
2018-05-10T23:08:06.112Z,11.40
2018-05-10T23:10:09.341Z,11.30
2018-05-10T23:12:11.820Z,11.30
2018-05-10T23:14:14.235Z,11.30
2018-05-10T23:16:17.445Z,11.30
2018-05-10T23:18:19.872Z,11.20
2018-05-10T23:20:22.304Z,11.20
2018-05-10T23:22:24.775Z,11.20
2018-05-10T23:24:27.205Z,11.20
2018-05-10T23:26:30.411Z,11.20
2018-05-10T23:28:33.664Z,11.10
2018-05-10T23:30:36.197Z,11.10
2018-05-10T23:32:38.659Z,11.10
2018-05-10T23:34:41.124Z,11.10
2018-05-10T23:36:43.564Z,11.10
2018-05-10T23:38:46.760Z,11.00
2018-05-10T23:40:49.254Z,11.00
2018-05-10T23:42:51.697Z,11.00
2018-05-10T23:44:54.921Z,11.00
2018-05-10T23:46:57.369Z,10.90
2018-05-10T23:48:59.796Z,11.00
2018-05-10T23:51:02.991Z,10.90
2018-05-10T23:53:05.648Z,10.90
2018-05-10T23:55:08.191Z,10.90
2018-05-10T23:57:10.661Z,10.90
2018-05-10T23:59:13.132Z,10.90
